Time;durP1;ratioP1;P1;durP2;ratioP2;P2;SDS_P1;SDS_P2;PMS_P1;PMS_P2;Temp;Humidity;BMP_temperature;BMP_pressure;BME280_temperature;BME280_humidity;BME280_pressure;Samples;Min_cycle;Max_cycle;Signal;HPM_P1;HPM_P2
2024/04/03 00:00:31;;;;;;;4.00;2.10;;;;;;;;;;5112687;28;20270;-55
2024/04/03 00:02:58;;;;;;;5.17;2.00;;;;;;;;;;5113551;28;20258;-55
2024/04/03 00:05:24;;;;;;;2.60;1.77;;;;;;;;;;5112680;28;20179;-55
2024/04/03 00:07:52;;;;;;;5.33;1.93;;;;;;;;;;5113028;28;20672;-55
2024/04/03 00:10:19;;;;;;;3.13;2.03;;;;;;;;;;5113045;28;20170;-55
2024/04/03 00:12:45;;;;;;;4.30;2.00;;;;;;;;;;5112989;28;20174;-55
2024/04/03 00:15:11;;;;;;;5.37;1.90;;;;;;;;;;5112406;28;20171;-55
2024/04/03 00:17:37;;;;;;;1.70;1.60;;;;;;;;;;5113144;28;20810;-56
2024/04/03 00:20:04;;;;;;;3.63;2.13;;;;;;;;;;5112342;28;20167;-57
2024/04/03 00:22:30;;;;;;;2.73;1.77;;;;;;;;;;5112824;28;20230;-57
2024/04/03 00:24:56;;;;;;;2.80;1.93;;;;;;;;;;5112215;28;20152;-57
2024/04/03 00:27:22;;;;;;;2.07;1.87;;;;;;;;;;5113137;28;20174;-52
2024/04/03 00:29:48;;;;;;;2.67;1.97;;;;;;;;;;5112523;28;20183;-52
2024/04/03 00:32:14;;;;;;;2.17;1.50;;;;;;;;;;5112833;28;20526;-53
2024/04/03 00:34:40;;;;;;;4.53;2.00;;;;;;;;;;5112603;28;20160;-53
2024/04/03 00:37:07;;;;;;;3.77;1.90;;;;;;;;;;5099474;28;20613;-52
2024/04/03 00:39:33;;;;;;;2.97;2.13;;;;;;;;;;5092028;28;20647;-53
2024/04/03 00:41:59;;;;;;;2.27;1.33;;;;;;;;;;5092048;28;20168;-53
2024/04/03 00:44:25;;;;;;;3.20;1.60;;;;;;;;;;5092009;28;20160;-52
2024/04/03 00:46:52;;;;;;;2.07;1.57;;;;;;;;;;5073783;28;20172;-52
2024/04/03 00:49:19;;;;;;;3.93;1.70;;;;;;;;;;5092099;28;20279;-53
2024/04/03 00:51:47;;;;;;;3.27;1.60;;;;;;;;;;5091648;28;20615;-52
2024/04/03 00:54:13;;;;;;;3.40;1.90;;;;;;;;;;5091315;28;20183;-53
2024/04/03 00:56:40;;;;;;;2.60;1.53;;;;;;;;;;5091805;28;20179;-52
2024/04/03 00:59:06;;;;;;;1.73;1.63;;;;;;;;;;5091476;28;20168;-52
2024/04/03 01:01:32;;;;;;;2.60;1.63;;;;;;;;;;5091479;28;20247;-52
2024/04/03 01:03:58;;;;;;;1.93;1.53;;;;;;;;;;5092484;28;20521;-52
2024/04/03 01:06:24;;;;;;;3.50;2.03;;;;;;;;;;5091311;28;20200;-52
2024/04/03 01:08:50;;;;;;;2.30;1.80;;;;;;;;;;5091390;28;20294;-52
2024/04/03 01:11:17;;;;;;;5.13;1.60;;;;;;;;;;5091669;28;20183;-53
2024/04/03 01:13:43;;;;;;;2.13;1.63;;;;;;;;;;5091175;28;20160;-52
2024/04/03 01:16:09;;;;;;;1.93;1.50;;;;;;;;;;5091225;28;20612;-52
2024/04/03 01:18:36;;;;;;;2.00;1.50;;;;;;;;;;5091440;28;20199;-52
2024/04/03 01:21:02;;;;;;;3.60;1.63;;;;;;;;;;5090641;28;20726;-53
2024/04/03 01:23:29;;;;;;;3.37;1.80;;;;;;;;;;5090924;28;20364;-53
2024/04/03 01:25:55;;;;;;;6.50;1.70;;;;;;;;;;5091453;28;20645;-53
2024/04/03 01:28:21;;;;;;;3.87;1.60;;;;;;;;;;5090671;28;20290;-52
2024/04/03 01:30:47;;;;;;;2.37;1.70;;;;;;;;;;5091251;28;20248;-52
2024/04/03 01:33:14;;;;;;;1.93;1.40;;;;;;;;;;5090939;28;20282;-53
2024/04/03 01:35:40;;;;;;;3.57;1.57;;;;;;;;;;5090778;28;20716;-52
2024/04/03 01:38:06;;;;;;;3.90;2.03;;;;;;;;;;5090730;28;20175;-53
2024/04/03 01:40:32;;;;;;;2.83;1.40;;;;;;;;;;5091236;28;20615;-52
2024/04/03 01:42:58;;;;;;;3.13;1.40;;;;;;;;;;5090972;28;20203;-52
2024/04/03 01:45:24;;;;;;;3.43;1.63;;;;;;;;;;5090724;28;20190;-53
2024/04/03 01:47:50;;;;;;;2.67;1.87;;;;;;;;;;5091079;28;20199;-52
2024/04/03 01:50:20;;;;;;;2.67;1.43;;;;;;;;;;5092293;27;20512;-52
2024/04/03 01:52:47;;;;;;;2.57;1.50;;;;;;;;;;5131595;27;20261;-52
2024/04/03 01:55:13;;;;;;;3.13;1.30;;;;;;;;;;5131429;27;20177;-52
2024/04/03 01:57:39;;;;;;;1.07;1.03;;;;;;;;;;5131834;27;20161;-54
2024/04/03 02:00:06;;;;;;;2.73;1.77;;;;;;;;;;5131265;27;20633;-53
2024/04/03 02:02:33;;;;;;;6.83;1.80;;;;;;;;;;5130761;27;20166;-53
2024/04/03 02:04:59;;;;;;;3.30;2.07;;;;;;;;;;5131148;27;20589;-53
2024/04/03 02:07:25;;;;;;;3.77;1.63;;;;;;;;;;5131827;27;20254;-52
2024/04/03 02:09:51;;;;;;;2.73;1.33;;;;;;;;;;5131017;27;20628;-52
2024/04/03 02:12:19;;;;;;;2.67;1.47;;;;;;;;;;5131365;27;20262;-52
2024/04/03 02:14:45;;;;;;;1.97;1.50;;;;;;;;;;5131065;27;20155;-52
2024/04/03 02:17:11;;;;;;;2.67;1.57;;;;;;;;;;5131162;27;20183;-52
2024/04/03 02:19:37;;;;;;;2.47;1.43;;;;;;;;;;5131183;27;20174;-52
2024/04/03 02:22:03;;;;;;;4.47;1.57;;;;;;;;;;5130293;27;20228;-53
2024/04/03 02:24:29;;;;;;;2.23;1.90;;;;;;;;;;5130936;27;20875;-53
2024/04/03 02:26:55;;;;;;;2.43;1.30;;;;;;;;;;5130876;27;20195;-53
2024/04/03 02:29:22;;;;;;;2.67;1.70;;;;;;;;;;5130759;27;20203;-52
2024/04/03 02:31:48;;;;;;;2.23;1.43;;;;;;;;;;5131085;27;20653;-53
2024/04/03 02:34:14;;;;;;;2.43;1.63;;;;;;;;;;5130793;27;20172;-52
2024/04/03 02:36:40;;;;;;;1.40;1.30;;;;;;;;;;5121866;27;20182;-52
2024/04/03 02:39:06;;;;;;;1.63;1.30;;;;;;;;;;5110185;28;20180;-53
2024/04/03 02:41:32;;;;;;;2.80;1.40;;;;;;;;;;5110586;28;20222;-52
2024/04/03 02:43:58;;;;;;;2.23;1.40;;;;;;;;;;5110039;28;20533;-52
2024/04/03 02:46:24;;;;;;;2.23;1.40;;;;;;;;;;5110330;28;20533;-53
2024/04/03 02:48:50;;;;;;;2.00;1.40;;;;;;;;;;5110008;28;20328;-53
2024/04/03 02:51:16;;;;;;;1.73;1.40;;;;;;;;;;5109919;28;20171;-53
2024/04/03 02:53:42;;;;;;;3.70;1.70;;;;;;;;;;5109891;28;20172;-53
2024/04/03 02:56:08;;;;;;;3.80;1.50;;;;;;;;;;5110114;28;20249;-53
2024/04/03 02:58:35;;;;;;;2.33;1.37;;;;;;;;;;5109323;28;20175;-53
2024/04/03 03:01:02;;;;;;;3.13;1.50;;;;;;;;;;5109914;28;20415;-53
2024/04/03 03:03:31;;;;;;;1.77;1.50;;;;;;;;;;5109846;28;20186;-52
2024/04/03 03:06:01;;;;;;;3.87;1.80;;;;;;;;;;5109623;28;20614;-53
2024/04/03 03:08:30;;;;;;;3.27;1.60;;;;;;;;;;5109250;28;20203;-53
2024/04/03 03:10:57;;;;;;;2.33;1.63;;;;;;;;;;5109647;28;20155;-52
2024/04/03 03:13:26;;;;;;;2.80;1.80;;;;;;;;;;5109624;28;20168;-53
2024/04/03 03:15:56;;;;;;;2.23;1.50;;;;;;;;;;5109746;28;20533;-53
2024/04/03 03:18:25;;;;;;;4.07;2.70;;;;;;;;;;5109829;28;20194;-53
2024/04/03 03:20:51;;;;;;;2.17;1.63;;;;;;;;;;5109554;28;20650;-52
2024/04/03 03:23:18;;;;;;;2.93;1.63;;;;;;;;;;5109180;28;20697;-53
2024/04/03 03:25:45;;;;;;;3.13;1.50;;;;;;;;;;5109886;28;20216;-53
2024/04/03 03:28:11;;;;;;;2.17;1.53;;;;;;;;;;5109716;28;20732;-53
2024/04/03 03:30:38;;;;;;;4.33;1.70;;;;;;;;;;5109649;28;20242;-52
2024/04/03 03:33:04;;;;;;;4.43;1.70;;;;;;;;;;5109404;28;20190;-53
2024/04/03 03:35:30;;;;;;;2.73;1.70;;;;;;;;;;5109549;28;20162;-54
2024/04/03 03:37:56;;;;;;;2.53;1.77;;;;;;;;;;5108911;28;20638;-54
2024/04/03 03:40:22;;;;;;;4.37;1.90;;;;;;;;;;5109546;28;20254;-54
2024/04/03 03:42:48;;;;;;;2.90;2.03;;;;;;;;;;5109405;28;20248;-53
2024/04/03 03:45:18;;;;;;;3.93;1.90;;;;;;;;;;5109135;28;20585;-53
2024/04/03 03:47:44;;;;;;;3.43;1.70;;;;;;;;;;5109374;28;20195;-53
2024/04/03 03:52:55;;;;;;;5.67;2.20;;;;;;;;;;5108880;28;20189;-53
2024/04/03 03:55:21;;;;;;;4.13;1.90;;;;;;;;;;5109460;28;20164;-52
2024/04/03 03:57:47;;;;;;;2.70;1.70;;;;;;;;;;5109571;28;20163;-52
2024/04/03 04:00:13;;;;;;;3.50;2.00;;;;;;;;;;5109289;28;20171;-54
2024/04/03 04:02:39;;;;;;;4.87;2.03;;;;;;;;;;5109394;28;20176;-54
2024/04/03 04:05:05;;;;;;;9.03;2.50;;;;;;;;;;5108866;28;20258;-54
2024/04/03 04:07:32;;;;;;;3.97;2.20;;;;;;;;;;5109613;28;20282;-54
2024/04/03 04:09:58;;;;;;;2.63;1.97;;;;;;;;;;5109104;28;20163;-54
2024/04/03 04:12:24;;;;;;;7.83;2.87;;;;;;;;;;5109564;28;20539;-54
2024/04/03 04:14:51;;;;;;;3.80;2.20;;;;;;;;;;5109060;28;20627;-54
2024/04/03 04:17:18;;;;;;;5.30;2.23;;;;;;;;;;5109342;28;20685;-54
2024/04/03 04:19:44;;;;;;;4.50;2.43;;;;;;;;;;5109221;28;20553;-54
2024/04/03 04:22:10;;;;;;;3.67;2.47;;;;;;;;;;5108402;28;20211;-54
2024/04/03 04:24:37;;;;;;;4.07;2.33;;;;;;;;;;5108936;28;20189;-55
2024/04/03 04:27:05;;;;;;;5.00;1.97;;;;;;;;;;5112676;28;20178;-54
2024/04/03 04:29:32;;;;;;;4.10;2.23;;;;;;;;;;5112498;28;20662;-54
2024/04/03 04:32:01;;;;;;;3.67;2.57;;;;;;;;;;5112623;28;20234;-54
2024/04/03 04:34:27;;;;;;;4.00;2.63;;;;;;;;;;5113027;28;20631;-54
2024/04/03 04:36:53;;;;;;;3.77;2.47;;;;;;;;;;5112249;28;20650;-54
2024/04/03 04:39:19;;;;;;;3.63;2.50;;;;;;;;;;5112322;28;20228;-54
2024/04/03 04:41:49;;;;;;;4.70;2.50;;;;;;;;;;5112768;28;20675;-54
2024/04/03 04:44:16;;;;;;;4.13;2.60;;;;;;;;;;5111902;28;20216;-54
2024/04/03 04:46:42;;;;;;;5.07;2.20;;;;;;;;;;5112742;28;20246;-54
2024/04/03 04:49:08;;;;;;;4.07;2.47;;;;;;;;;;5112145;28;20652;-54
2024/04/03 04:51:34;;;;;;;4.90;2.60;;;;;;;;;;5093686;28;20175;-54
2024/04/03 04:54:00;;;;;;;4.60;2.50;;;;;;;;;;5111753;28;20155;-54
2024/04/03 04:56:26;;;;;;;3.30;2.27;;;;;;;;;;5112592;28;20521;-54
2024/04/03 04:58:52;;;;;;;2.80;2.17;;;;;;;;;;5111632;28;20171;-54
2024/04/03 05:01:19;;;;;;;4.07;2.30;;;;;;;;;;5112242;28;20163;-54
2024/04/03 05:03:45;;;;;;;4.07;2.63;;;;;;;;;;5112423;28;20167;-54
2024/04/03 05:06:18;;;;;;;3.23;2.30;;;;;;;;;;5111561;28;20191;-54
2024/04/03 05:08:45;;;;;;;3.70;2.30;;;;;;;;;;5111349;28;20206;-54
2024/04/03 05:11:11;;;;;;;4.53;2.27;;;;;;;;;;5111352;28;20175;-53
2024/04/03 05:13:38;;;;;;;3.60;2.13;;;;;;;;;;5111420;28;20167;-53
2024/04/03 05:16:11;;;;;;;3.37;1.80;;;;;;;;;;5112199;28;20159;-53
2024/04/03 05:18:38;;;;;;;3.47;2.07;;;;;;;;;;5111936;28;20598;-54
2024/04/03 05:21:05;;;;;;;5.57;2.47;;;;;;;;;;5111838;28;20278;-58
2024/04/03 05:23:31;;;;;;;4.80;2.10;;;;;;;;;;5111155;28;20302;-53
2024/04/03 05:25:58;;;;;;;4.97;2.00;;;;;;;;;;5111666;28;20689;-53
2024/04/03 05:28:25;;;;;;;5.63;2.40;;;;;;;;;;5110958;28;20259;-53
2024/04/03 05:30:51;;;;;;;3.07;1.97;;;;;;;;;;5111640;28;20155;-52
2024/04/03 05:33:17;;;;;;;3.00;2.10;;;;;;;;;;5111666;28;20167;-52
2024/04/03 05:35:53;;;;;;;5.53;2.30;;;;;;;;;;5111100;28;20195;-53
2024/04/03 05:38:19;;;;;;;2.97;2.13;;;;;;;;;;5110064;28;20259;-52
2024/04/03 05:40:46;;;;;;;3.83;2.13;;;;;;;;;;5111642;28;20549;-52
2024/04/03 05:43:12;;;;;;;4.13;1.90;;;;;;;;;;5111131;28;20232;-52
2024/04/03 05:45:38;;;;;;;4.63;2.43;;;;;;;;;;5111170;28;20193;-52
2024/04/03 05:48:04;;;;;;;3.63;2.20;;;;;;;;;;5111289;28;20932;-52
2024/04/03 05:50:30;;;;;;;3.17;1.73;;;;;;;;;;5111033;28;20499;-52
2024/04/03 05:52:56;;;;;;;3.17;2.13;;;;;;;;;;5110560;28;20174;-52
2024/04/03 05:55:22;;;;;;;4.77;2.30;;;;;;;;;;5111296;28;20172;-53
2024/04/03 05:57:48;;;;;;;1.77;1.63;;;;;;;;;;5110936;28;20167;-52
2024/04/03 06:00:14;;;;;;;3.10;2.07;;;;;;;;;;5109292;28;20638;-52
2024/04/03 06:02:40;;;;;;;8.53;2.10;;;;;;;;;;5111213;28;20199;-52
2024/04/03 06:05:07;;;;;;;3.50;2.13;;;;;;;;;;5110479;28;20160;-52
2024/04/03 06:07:33;;;;;;;4.30;1.93;;;;;;;;;;5110863;28;20175;-52
2024/04/03 06:10:01;;;;;;;2.97;2.10;;;;;;;;;;5110058;28;20286;-52
2024/04/03 06:12:27;;;;;;;2.83;1.87;;;;;;;;;;5111138;28;20171;-52
2024/04/03 06:14:53;;;;;;;4.30;1.73;;;;;;;;;;5110567;28;20529;-52
2024/04/03 06:17:19;;;;;;;12.73;2.43;;;;;;;;;;5110558;28;20290;-52
2024/04/03 06:19:45;;;;;;;3.53;1.90;;;;;;;;;;5110861;28;20190;-52
2024/04/03 06:22:11;;;;;;;6.17;2.40;;;;;;;;;;5110069;28;20210;-52
2024/04/03 06:24:37;;;;;;;4.07;2.30;;;;;;;;;;5110343;28;20201;-52
2024/04/03 06:27:04;;;;;;;7.73;2.70;;;;;;;;;;5110460;28;20627;-52
2024/04/03 06:29:30;;;;;;;4.37;1.93;;;;;;;;;;5110160;28;20199;-52
2024/04/03 06:31:57;;;;;;;5.03;2.37;;;;;;;;;;5110293;28;20147;-53
2024/04/03 06:34:23;;;;;;;3.37;2.00;;;;;;;;;;5110326;28;20228;-52
2024/04/03 06:36:49;;;;;;;6.57;2.33;;;;;;;;;;5109771;28;20175;-52
2024/04/03 06:39:15;;;;;;;2.60;2.40;;;;;;;;;;5110156;28;20174;-52
2024/04/03 06:41:41;;;;;;;3.53;2.40;;;;;;;;;;5110336;28;20567;-51
2024/04/03 06:44:07;;;;;;;5.30;2.10;;;;;;;;;;5109626;28;20216;-51
2024/04/03 06:46:33;;;;;;;3.87;2.20;;;;;;;;;;5110107;28;20183;-52
2024/04/03 06:48:59;;;;;;;4.60;2.50;;;;;;;;;;5109777;28;20190;-53
2024/04/03 06:51:25;;;;;;;4.97;2.47;;;;;;;;;;5110004;28;20166;-52
2024/04/03 06:53:51;;;;;;;3.83;2.80;;;;;;;;;;5109581;28;20156;-52
2024/04/03 06:56:17;;;;;;;4.33;2.53;;;;;;;;;;5110315;28;20245;-52
2024/04/03 06:58:44;;;;;;;3.97;1.80;;;;;;;;;;5109667;28;20167;-52
2024/04/03 07:01:12;;;;;;;6.80;2.30;;;;;;;;;;5110462;28;20649;-52
2024/04/03 07:03:38;;;;;;;5.77;2.00;;;;;;;;;;5109733;28;20156;-52
2024/04/03 07:06:05;;;;;;;5.50;2.77;;;;;;;;;;5109613;28;20240;-52
2024/04/03 07:08:32;;;;;;;3.47;2.17;;;;;;;;;;5109288;28;20215;-53
2024/04/03 07:10:58;;;;;;;6.23;2.60;;;;;;;;;;5110073;28;20628;-52
2024/04/03 07:13:24;;;;;;;6.50;2.47;;;;;;;;;;5109222;28;20179;-52
2024/04/03 07:15:51;;;;;;;3.87;2.47;;;;;;;;;;5110182;28;20773;-52
2024/04/03 07:18:17;;;;;;;2.80;2.03;;;;;;;;;;5109535;28;20206;-52
2024/04/03 07:20:52;;;;;;;5.53;2.60;;;;;;;;;;5109223;28;20722;-52
2024/04/03 07:23:18;;;;;;;6.83;2.23;;;;;;;;;;5109161;28;20392;-52
2024/04/03 07:25:45;;;;;;;6.73;2.30;;;;;;;;;;5110033;28;20601;-52
2024/04/03 07:28:11;;;;;;;4.33;2.40;;;;;;;;;;5109495;28;20711;-53
2024/04/03 07:30:39;;;;;;;3.97;2.80;;;;;;;;;;5109781;28;20160;-53
2024/04/03 07:33:05;;;;;;;3.37;2.37;;;;;;;;;;5109886;28;20571;-53
2024/04/03 07:35:31;;;;;;;4.93;2.60;;;;;;;;;;5109181;28;20163;-53
2024/04/03 07:37:58;;;;;;;4.10;2.73;;;;;;;;;;5089528;28;20175;-53
2024/04/03 07:40:24;;;;;;;4.60;2.50;;;;;;;;;;5089506;28;20172;-51
2024/04/03 07:42:50;;;;;;;3.50;2.37;;;;;;;;;;5089302;28;20164;-51
2024/04/03 07:45:16;;;;;;;2.93;2.00;;;;;;;;;;5088846;28;20176;-52
2024/04/03 07:47:42;;;;;;;5.80;3.07;;;;;;;;;;5089455;28;20179;-53
2024/04/03 07:50:08;;;;;;;5.80;2.07;;;;;;;;;;5088491;28;20267;-51
2024/04/03 07:52:38;;;;;;;3.63;2.40;;;;;;;;;;5089584;28;20265;-57
2024/04/03 07:55:11;;;;;;;4.40;2.10;;;;;;;;;;5088367;28;20158;-56
2024/04/03 07:57:37;;;;;;;7.13;2.40;;;;;;;;;;5089395;28;20538;-57
2024/04/03 08:00:08;;;;;;;5.83;2.40;;;;;;;;;;5089502;28;20704;-56
2024/04/03 08:02:37;;;;;;;6.73;2.40;;;;;;;;;;5093384;28;20619;-56
2024/04/03 08:05:04;;;;;;;8.80;2.73;;;;;;;;;;5092066;28;20193;-56
2024/04/03 08:07:30;;;;;;;4.20;2.43;;;;;;;;;;5093039;28;20156;-56
2024/04/03 08:09:56;;;;;;;5.67;2.17;;;;;;;;;;5092101;28;20209;-54
2024/04/03 08:12:22;;;;;;;4.27;2.20;;;;;;;;;;5092946;28;20176;-56
2024/04/03 08:14:48;;;;;;;6.33;2.83;;;;;;;;;;5092662;28;20176;-56
2024/04/03 08:17:15;;;;;;;4.77;2.30;;;;;;;;;;5093199;28;20667;-56
2024/04/03 08:19:41;;;;;;;7.60;2.57;;;;;;;;;;5093173;28;20193;-61
2024/04/03 08:22:07;;;;;;;2.53;2.20;;;;;;;;;;5092222;28;20675;-55
2024/04/03 08:24:33;;;;;;;6.20;2.07;;;;;;;;;;5091974;28;20199;-56
2024/04/03 08:26:59;;;;;;;6.87;2.73;;;;;;;;;;5092581;28;20643;-56
2024/04/03 08:29:25;;;;;;;3.50;2.47;;;;;;;;;;5092100;28;20207;-56
2024/04/03 08:31:51;;;;;;;2.87;2.20;;;;;;;;;;5092713;28;20164;-56
2024/04/03 08:34:18;;;;;;;5.70;2.53;;;;;;;;;;5092170;28;20156;-56
2024/04/03 08:36:44;;;;;;;5.23;2.60;;;;;;;;;;5101317;28;20191;-56
2024/04/03 08:39:10;;;;;;;6.90;2.53;;;;;;;;;;5112370;28;20534;-56
2024/04/03 08:41:36;;;;;;;8.13;2.53;;;;;;;;;;5112445;28;20172;-55
2024/04/03 08:44:02;;;;;;;6.60;3.13;;;;;;;;;;5112519;28;20174;-56
2024/04/03 08:46:29;;;;;;;4.80;2.63;;;;;;;;;;5112773;28;20541;-56
2024/04/03 08:48:56;;;;;;;6.20;2.70;;;;;;;;;;5111645;28;20639;-56
2024/04/03 08:51:28;;;;;;;4.17;2.37;;;;;;;;;;5111848;28;20218;-57
2024/04/03 08:53:58;;;;;;;5.73;2.40;;;;;;;;;;5112231;28;20177;-56
2024/04/03 08:56:24;;;;;;;4.87;2.43;;;;;;;;;;5112370;28;20175;-58
2024/04/03 08:58:51;;;;;;;3.77;2.73;;;;;;;;;;5112455;28;20301;-56
2024/04/03 09:01:17;;;;;;;4.47;2.33;;;;;;;;;;5112186;28;20176;-52
2024/04/03 09:03:44;;;;;;;5.67;2.50;;;;;;;;;;5112244;28;20163;-52
2024/04/03 09:06:11;;;;;;;7.23;2.40;;;;;;;;;;5111726;28;20159;-52
2024/04/03 09:08:41;;;;;;;3.63;2.40;;;;;;;;;;5111894;28;20194;-52
2024/04/03 09:11:08;;;;;;;5.30;2.23;;;;;;;;;;5111685;28;20151;-52
2024/04/03 09:13:34;;;;;;;5.50;2.40;;;;;;;;;;5111910;28;20562;-51
2024/04/03 09:16:01;;;;;;;4.93;2.60;;;;;;;;;;5112123;28;20589;-52
2024/04/03 09:18:27;;;;;;;6.33;3.10;;;;;;;;;;5112131;28;20747;-51
2024/04/03 09:20:54;;;;;;;3.60;2.70;;;;;;;;;;5111362;28;20168;-52
2024/04/03 09:23:21;;;;;;;4.97;1.93;;;;;;;;;;5111337;28;20460;-52
2024/04/03 09:25:48;;;;;;;3.50;2.10;;;;;;;;;;5111948;28;20182;-52
2024/04/03 09:28:14;;;;;;;5.43;2.40;;;;;;;;;;5111578;28;20561;-52
2024/04/03 09:30:41;;;;;;;4.53;2.33;;;;;;;;;;5111755;28;20175;-52
2024/04/03 09:33:07;;;;;;;7.97;2.67;;;;;;;;;;5111678;28;20247;-52
2024/04/03 09:35:34;;;;;;;4.00;2.37;;;;;;;;;;5111515;28;20621;-52
2024/04/03 09:38:01;;;;;;;5.47;2.00;;;;;;;;;;5111429;28;20702;-52
2024/04/03 09:40:28;;;;;;;4.67;2.30;;;;;;;;;;5111806;28;20514;-52
2024/04/03 09:43:13;;;;;;;3.63;2.20;;;;;;;;;;5111721;28;20191;-52
2024/04/03 09:45:39;;;;;;;3.83;2.10;;;;;;;;;;5111529;28;20167;-52
2024/04/03 09:48:09;;;;;;;7.20;2.30;;;;;;;;;;5111681;28;20167;-52
2024/04/03 09:50:45;;;;;;;4.17;2.33;;;;;;;;;;5110818;28;20207;-52
2024/04/03 09:53:15;;;;;;;3.87;1.83;;;;;;;;;;5111150;28;20155;-52
2024/04/03 09:55:42;;;;;;;3.83;1.80;;;;;;;;;;5111439;28;20174;-52
2024/04/03 09:58:12;;;;;;;5.57;2.50;;;;;;;;;;5111103;28;20533;-52
2024/04/03 10:00:38;;;;;;;4.63;2.23;;;;;;;;;;5111073;28;20198;-52
2024/04/03 10:03:05;;;;;;;3.57;1.63;;;;;;;;;;5093004;28;20261;-52
2024/04/03 10:05:35;;;;;;;6.83;2.90;;;;;;;;;;5110699;28;20156;-52
2024/04/03 10:08:02;;;;;;;6.03;2.40;;;;;;;;;;5110654;28;20151;-52
2024/04/03 10:10:30;;;;;;;8.70;1.83;;;;;;;;;;5111107;28;20148;-53
2024/04/03 10:13:00;;;;;;;3.73;2.10;;;;;;;;;;5111000;28;20170;-56
2024/04/03 10:15:27;;;;;;;2.00;1.50;;;;;;;;;;5110613;28;20526;-56
2024/04/03 10:17:53;;;;;;;3.67;2.17;;;;;;;;;;5110823;28;20666;-57
2024/04/03 10:20:31;;;;;;;2.93;1.87;;;;;;;;;;5110496;28;20160;-56
2024/04/03 10:22:57;;;;;;;3.13;2.10;;;;;;;;;;5109793;28;20640;-56
2024/04/03 10:25:23;;;;;;;2.50;1.60;;;;;;;;;;5110841;28;20166;-56
2024/04/03 10:27:49;;;;;;;5.23;1.90;;;;;;;;;;5110889;28;20275;-56
2024/04/03 10:30:18;;;;;;;3.57;2.00;;;;;;;;;;5110147;28;20262;-65
2024/04/03 10:32:45;;;;;;;7.37;2.10;;;;;;;;;;5110542;28;20267;-57
2024/04/03 10:35:11;;;;;;;3.17;1.87;;;;;;;;;;5110302;28;20174;-56
2024/04/03 10:37:37;;;;;;;2.40;1.50;;;;;;;;;;5110703;28;20264;-57
2024/04/03 10:40:03;;;;;;;1.37;1.27;;;;;;;;;;5110026;28;20238;-57
2024/04/03 10:42:30;;;;;;;2.97;1.67;;;;;;;;;;5110564;28;20652;-57
2024/04/03 10:44:56;;;;;;;2.17;1.60;;;;;;;;;;5110130;28;20316;-57
2024/04/03 10:47:22;;;;;;;1.53;1.37;;;;;;;;;;5110529;28;20604;-56
2024/04/03 10:49:48;;;;;;;2.80;1.53;;;;;;;;;;5110481;28;20365;-56
2024/04/03 10:52:16;;;;;;;2.90;1.53;;;;;;;;;;5109902;28;20186;-57
2024/04/03 10:54:42;;;;;;;2.53;1.30;;;;;;;;;;5110000;28;20159;-57
2024/04/03 10:57:08;;;;;;;1.73;1.30;;;;;;;;;;5110041;28;20165;-57
2024/04/03 10:59:34;;;;;;;1.77;1.40;;;;;;;;;;5091120;28;20175;-57
2024/04/03 11:02:00;;;;;;;3.87;1.60;;;;;;;;;;5110043;28;20175;-57
2024/04/03 11:04:27;;;;;;;2.23;1.67;;;;;;;;;;5110336;28;20167;-57
2024/04/03 11:06:53;;;;;;;1.50;1.40;;;;;;;;;;5109880;28;20801;-57
2024/04/03 11:09:19;;;;;;;2.00;1.40;;;;;;;;;;5109790;28;20282;-57
2024/04/03 11:11:52;;;;;;;1.60;1.50;;;;;;;;;;5110060;28;20172;-57
2024/04/03 11:14:24;;;;;;;2.07;1.53;;;;;;;;;;5109334;28;20165;-58
2024/04/03 11:16:52;;;;;;;1.30;1.20;;;;;;;;;;5109922;28;20649;-57
2024/04/03 11:19:18;;;;;;;1.63;1.25;;;;;;;;;;5109395;28;20461;-57
2024/04/03 11:21:44;;;;;;;1.13;1.00;;;;;;;;;;5109504;28;20244;-57
2024/04/03 11:24:10;;;;;;;1.50;1.40;;;;;;;;;;5109144;28;20792;-57
2024/04/03 11:26:36;;;;;;;1.20;1.10;;;;;;;;;;5110031;28;20568;-57
2024/04/03 11:29:22;;;;;;;1.60;1.50;;;;;;;;;;5109653;28;20655;-58
2024/04/03 11:31:48;;;;;;;2.60;1.20;;;;;;;;;;5109560;28;20184;-59
2024/04/03 11:34:14;;;;;;;2.57;1.17;;;;;;;;;;5110021;28;20172;-57
2024/04/03 11:36:40;;;;;;;1.30;1.20;;;;;;;;;;5104308;28;20174;-57
2024/04/03 11:39:08;;;;;;;1.50;1.30;;;;;;;;;;5093314;28;20276;-57
2024/04/03 11:41:34;;;;;;;1.70;1.47;;;;;;;;;;5093687;28;20174;-57
2024/04/03 11:44:00;;;;;;;1.07;1.00;;;;;;;;;;5093198;28;20604;-57
2024/04/03 11:46:27;;;;;;;1.30;1.13;;;;;;;;;;5093581;28;20608;-56
2024/04/03 11:48:59;;;;;;;2.17;1.53;;;;;;;;;;5093596;28;20603;-57
2024/04/03 11:51:25;;;;;;;1.00;1.00;;;;;;;;;;5092853;28;20194;-57
2024/04/03 11:53:51;;;;;;;1.30;1.20;;;;;;;;;;5092893;28;20560;-57
2024/04/03 11:56:19;;;;;;;1.20;1.10;;;;;;;;;;5093303;28;20169;-57
2024/04/03 11:58:50;;;;;;;2.73;1.30;;;;;;;;;;5092762;28;20206;-58
2024/04/03 12:01:16;;;;;;;1.83;1.43;;;;;;;;;;5092922;28;20164;-57
2024/04/03 12:03:42;;;;;;;1.20;1.10;;;;;;;;;;5093189;28;20200;-57
2024/04/03 12:06:09;;;;;;;1.10;1.10;;;;;;;;;;5092617;28;20226;-59
2024/04/03 12:08:36;;;;;;;1.53;0.93;;;;;;;;;;5092588;28;20245;-57
2024/04/03 12:11:02;;;;;;;1.83;0.97;;;;;;;;;;5093122;28;20187;-58
2024/04/03 12:13:28;;;;;;;2.80;1.00;;;;;;;;;;5092529;28;20160;-58
2024/04/03 12:15:54;;;;;;;1.27;1.17;;;;;;;;;;5093271;28;20191;-56
2024/04/03 12:18:25;;;;;;;1.00;1.00;;;;;;;;;;5092638;28;20641;-56
2024/04/03 12:20:54;;;;;;;1.00;1.00;;;;;;;;;;5092801;28;20164;-57
2024/04/03 12:23:21;;;;;;;1.37;1.30;;;;;;;;;;5092348;28;20318;-56
2024/04/03 12:25:47;;;;;;;1.60;1.13;;;;;;;;;;5092973;28;20176;-60
2024/04/03 12:28:13;;;;;;;1.73;1.10;;;;;;;;;;5092412;28;20729;-56
2024/04/03 12:30:40;;;;;;;0.93;0.93;;;;;;;;;;5092734;28;20168;-57
2024/04/03 12:33:06;;;;;;;1.73;1.10;;;;;;;;;;5092834;28;20180;-53
2024/04/03 12:35:33;;;;;;;1.83;1.20;;;;;;;;;;5092412;28;20771;-52
2024/04/03 12:37:59;;;;;;;1.13;1.03;;;;;;;;;;5111452;28;20502;-52
2024/04/03 12:40:25;;;;;;;1.20;1.20;;;;;;;;;;5112655;28;20248;-53
2024/04/03 12:42:52;;;;;;;1.80;1.17;;;;;;;;;;5113026;28;20171;-52
2024/04/03 12:45:18;;;;;;;1.30;1.20;;;;;;;;;;5111857;28;20160;-55
2024/04/03 12:47:44;;;;;;;1.10;1.10;;;;;;;;;;5112534;28;20187;-51
2024/04/03 12:50:10;;;;;;;0.87;0.87;;;;;;;;;;5112271;28;20198;-52
2024/04/03 12:52:37;;;;;;;1.30;1.20;;;;;;;;;;5112762;28;20164;-52
2024/04/03 12:55:03;;;;;;;1.03;1.03;;;;;;;;;;5111767;28;20170;-52
2024/04/03 12:57:29;;;;;;;1.20;1.10;;;;;;;;;;5112658;28;20160;-52
2024/04/03 12:59:55;;;;;;;1.97;1.20;;;;;;;;;;5111959;28;20274;-53
2024/04/03 13:02:21;;;;;;;1.93;1.77;;;;;;;;;;5112317;28;20286;-51
2024/04/03 13:04:47;;;;;;;3.10;1.27;;;;;;;;;;5112407;28;20518;-51
2024/04/03 13:07:13;;;;;;;1.17;1.07;;;;;;;;;;5111884;28;20622;-52
2024/04/03 13:09:39;;;;;;;1.00;1.00;;;;;;;;;;5111935;28;20290;-52
2024/04/03 13:12:06;;;;;;;1.43;1.10;;;;;;;;;;5111968;28;20163;-53
2024/04/03 13:14:32;;;;;;;1.30;1.20;;;;;;;;;;5111453;28;20159;-51
2024/04/03 13:16:59;;;;;;;1.20;0.90;;;;;;;;;;5112114;28;20163;-51
2024/04/03 13:19:25;;;;;;;1.13;1.03;;;;;;;;;;5111852;28;20205;-52
2024/04/03 13:21:51;;;;;;;1.17;1.10;;;;;;;;;;5111546;28;20166;-51
2024/04/03 13:24:17;;;;;;;1.60;1.50;;;;;;;;;;5111093;28;20223;-52
2024/04/03 13:26:44;;;;;;;0.90;0.90;;;;;;;;;;5111816;28;20212;-52
2024/04/03 13:29:10;;;;;;;1.90;1.20;;;;;;;;;;5111286;28;20206;-52
2024/04/03 13:31:36;;;;;;;1.00;1.00;;;;;;;;;;5111592;28;20674;-52
2024/04/03 13:34:02;;;;;;;1.80;1.20;;;;;;;;;;5111892;28;20172;-52
2024/04/03 13:36:28;;;;;;;1.30;1.20;;;;;;;;;;5111364;28;20179;-51
2024/04/03 13:38:54;;;;;;;1.30;1.20;;;;;;;;;;5111194;28;20163;-52
2024/04/03 13:41:20;;;;;;;1.30;1.20;;;;;;;;;;5111351;28;20736;-52
2024/04/03 13:43:47;;;;;;;1.03;0.93;;;;;;;;;;5111533;28;20170;-53
2024/04/03 13:46:13;;;;;;;1.33;1.20;;;;;;;;;;5111436;28;20280;-53
2024/04/03 13:48:39;;;;;;;1.23;0.90;;;;;;;;;;5111302;28;20183;-53
2024/04/03 13:51:08;;;;;;;1.50;1.40;;;;;;;;;;5110889;28;20754;-53
2024/04/03 13:53:34;;;;;;;1.30;1.20;;;;;;;;;;5102326;28;20178;-52
2024/04/03 13:56:02;;;;;;;2.70;1.20;;;;;;;;;;5099378;28;20182;-52
2024/04/03 13:58:28;;;;;;;3.30;1.90;;;;;;;;;;5108747;28;20444;-52
2024/04/03 14:01:05;;;;;;;1.33;1.30;;;;;;;;;;5099554;28;20713;-53
2024/04/03 14:03:35;;;;;;;1.37;1.27;;;;;;;;;;5106319;28;20172;-53
2024/04/03 14:06:04;;;;;;;1.50;1.40;;;;;;;;;;5090298;28;20265;-53
2024/04/03 14:08:30;;;;;;;1.93;1.40;;;;;;;;;;5107774;28;20206;-53
2024/04/03 14:10:57;;;;;;;1.93;1.30;;;;;;;;;;5111015;28;20175;-53
2024/04/03 14:13:23;;;;;;;1.50;1.30;;;;;;;;;;5110206;28;20152;-52
2024/04/03 14:15:49;;;;;;;2.90;1.60;;;;;;;;;;5111164;28;20196;-52
2024/04/03 14:18:16;;;;;;;1.63;1.50;;;;;;;;;;5110551;28;20191;-52
2024/04/03 14:20:42;;;;;;;1.40;1.30;;;;;;;;;;5110315;28;20152;-53
2024/04/03 14:23:08;;;;;;;1.97;1.40;;;;;;;;;;5110236;28;20222;-53
2024/04/03 14:25:37;;;;;;;2.93;1.33;;;;;;;;;;5110793;28;20209;-53
2024/04/03 14:28:03;;;;;;;1.30;1.20;;;;;;;;;;5110624;28;20170;-53
2024/04/03 14:30:29;;;;;;;2.73;1.60;;;;;;;;;;5110083;28;20168;-54
2024/04/03 14:32:57;;;;;;;2.50;1.40;;;;;;;;;;5110906;28;20216;-53
2024/04/03 14:35:23;;;;;;;1.23;1.13;;;;;;;;;;5109889;28;20213;-53
2024/04/03 14:37:55;;;;;;;1.60;1.50;;;;;;;;;;5091703;28;20204;-52
2024/04/03 14:40:21;;;;;;;1.53;1.40;;;;;;;;;;5090067;28;20247;-52
2024/04/03 14:42:47;;;;;;;1.60;1.50;;;;;;;;;;5090212;28;20164;-52